sensor_id;sensor_type;location;lat;lon;timestamp;P1;durP1;ratioP1;P2;durP2;ratioP2
77148;SDS011;66122;47.130;16.844;2023-01-24T00:04:51;25.83;;;10.63;;
77148;SDS011;66122;47.130;16.844;2023-01-24T00:14:53;29.37;;;11.77;;
77148;SDS011;66122;47.130;16.844;2023-01-24T00:24:56;29.13;;;10.60;;
77148;SDS011;66122;47.130;16.844;2023-01-24T00:34:58;28.17;;;10.98;;
77148;SDS011;66122;47.130;16.844;2023-01-24T00:45:01;26.60;;;11.32;;
77148;SDS011;66122;47.130;16.844;2023-01-24T00:55:03;26.50;;;10.27;;
77148;SDS011;66122;47.130;16.844;2023-01-24T01:05:06;23.47;;;9.97;;
77148;SDS011;66122;47.130;16.844;2023-01-24T01:15:09;22.60;;;10.88;;
77148;SDS011;66122;47.130;16.844;2023-01-24T01:25:12;25.37;;;10.97;;
77148;SDS011;66122;47.130;16.844;2023-01-24T01:35:15;27.77;;;11.00;;
77148;SDS011;66122;47.130;16.844;2023-01-24T01:45:39;27.10;;;12.20;;
77148;SDS011;66122;47.130;16.844;2023-01-24T01:55:43;24.60;;;10.50;;
77148;SDS011;66122;47.130;16.844;2023-01-24T02:05:50;25.40;;;10.63;;
77148;SDS011;66122;47.130;16.844;2023-01-24T02:15:54;27.08;;;10.32;;
77148;SDS011;66122;47.130;16.844;2023-01-24T02:26:09;27.43;;;11.73;;
77148;SDS011;66122;47.130;16.844;2023-01-24T02:36:32;28.67;;;12.00;;
77148;SDS011;66122;47.130;16.844;2023-01-24T02:46:38;23.53;;;10.73;;
77148;SDS011;66122;47.130;16.844;2023-01-24T02:56:45;26.92;;;11.65;;
77148;SDS011;66122;47.130;16.844;2023-01-24T03:07:06;28.13;;;10.63;;
77148;SDS011;66122;47.130;16.844;2023-01-24T03:17:13;24.13;;;9.63;;
77148;SDS011;66122;47.130;16.844;2023-01-24T03:27:34;28.08;;;11.57;;
77148;SDS011;66122;47.130;16.844;2023-01-24T03:38:02;26.83;;;10.83;;
77148;SDS011;66122;47.130;16.844;2023-01-24T03:48:23;24.03;;;11.90;;
77148;SDS011;66122;47.130;16.844;2023-01-24T03:58:29;26.25;;;11.57;;
77148;SDS011;66122;47.130;16.844;2023-01-24T04:08:34;25.73;;;10.45;;
77148;SDS011;66122;47.130;16.844;2023-01-24T04:18:37;32.57;;;13.93;;
77148;SDS011;66122;47.130;16.844;2023-01-24T04:28:40;24.77;;;11.10;;
77148;SDS011;66122;47.130;16.844;2023-01-24T04:38:42;25.33;;;10.05;;
77148;SDS011;66122;47.130;16.844;2023-01-24T04:48:53;30.73;;;12.80;;
77148;SDS011;66122;47.130;16.844;2023-01-24T04:59:01;24.13;;;10.53;;
77148;SDS011;66122;47.130;16.844;2023-01-24T05:09:04;21.27;;;9.75;;
77148;SDS011;66122;47.130;16.844;2023-01-24T05:19:36;24.90;;;9.97;;
77148;SDS011;66122;47.130;16.844;2023-01-24T05:29:40;25.17;;;12.03;;
77148;SDS011;66122;47.130;16.844;2023-01-24T05:39:43;25.30;;;11.27;;
77148;SDS011;66122;47.130;16.844;2023-01-24T05:49:46;25.52;;;10.23;;
77148;SDS011;66122;47.130;16.844;2023-01-24T05:59:48;27.30;;;10.47;;
77148;SDS011;66122;47.130;16.844;2023-01-24T06:09:51;31.07;;;12.77;;
77148;SDS011;66122;47.130;16.844;2023-01-24T06:19:54;34.05;;;14.73;;
77148;SDS011;66122;47.130;16.844;2023-01-24T06:29:58;33.10;;;15.17;;
77148;SDS011;66122;47.130;16.844;2023-01-24T06:40:10;25.97;;;10.73;;
77148;SDS011;66122;47.130;16.844;2023-01-24T06:50:16;27.90;;;11.80;;
77148;SDS011;66122;47.130;16.844;2023-01-24T07:00:20;29.90;;;11.63;;
77148;SDS011;66122;47.130;16.844;2023-01-24T07:10:23;28.47;;;11.53;;
77148;SDS011;66122;47.130;16.844;2023-01-24T07:20:26;27.50;;;10.75;;
77148;SDS011;66122;47.130;16.844;2023-01-24T07:30:28;21.95;;;9.48;;
77148;SDS011;66122;47.130;16.844;2023-01-24T07:40:31;27.57;;;10.57;;
77148;SDS011;66122;47.130;16.844;2023-01-24T07:50:34;30.17;;;11.83;;
77148;SDS011;66122;47.130;16.844;2023-01-24T08:00:37;26.27;;;11.75;;
77148;SDS011;66122;47.130;16.844;2023-01-24T08:10:40;32.63;;;13.23;;
77148;SDS011;66122;47.130;16.844;2023-01-24T08:20:42;27.13;;;12.27;;
77148;SDS011;66122;47.130;16.844;2023-01-24T08:30:45;25.80;;;11.93;;
77148;SDS011;66122;47.130;16.844;2023-01-24T08:40:48;31.57;;;12.93;;
77148;SDS011;66122;47.130;16.844;2023-01-24T08:50:52;28.57;;;12.43;;
77148;SDS011;66122;47.130;16.844;2023-01-24T09:00:54;27.73;;;11.40;;
77148;SDS011;66122;47.130;16.844;2023-01-24T09:10:57;28.17;;;12.20;;
77148;SDS011;66122;47.130;16.844;2023-01-24T09:21:02;28.00;;;11.87;;
77148;SDS011;66122;47.130;16.844;2023-01-24T09:31:07;28.67;;;11.73;;
77148;SDS011;66122;47.130;16.844;2023-01-24T09:41:17;33.05;;;12.88;;
77148;SDS011;66122;47.130;16.844;2023-01-24T09:51:27;31.20;;;14.63;;
77148;SDS011;66122;47.130;16.844;2023-01-24T10:01:32;29.17;;;13.23;;
77148;SDS011;66122;47.130;16.844;2023-01-24T10:11:45;29.88;;;13.23;;
77148;SDS011;66122;47.130;16.844;2023-01-24T10:32:36;27.70;;;13.40;;
77148;SDS011;66122;47.130;16.844;2023-01-24T10:42:45;31.60;;;13.25;;
77148;SDS011;66122;47.130;16.844;2023-01-24T10:52:48;25.33;;;11.60;;
77148;SDS011;66122;47.130;16.844;2023-01-24T11:02:53;31.20;;;12.17;;
77148;SDS011;66122;47.130;16.844;2023-01-24T11:12:58;26.80;;;11.37;;
77148;SDS011;66122;47.130;16.844;2023-01-24T11:23:03;30.73;;;12.85;;
77148;SDS011;66122;47.130;16.844;2023-01-24T12:24:32;32.53;;;13.70;;
77148;SDS011;66122;47.130;16.844;2023-01-24T12:45:00;29.37;;;12.73;;
77148;SDS011;66122;47.130;16.844;2023-01-24T13:05:45;30.67;;;13.90;;
77148;SDS011;66122;47.130;16.844;2023-01-24T13:36:45;31.50;;;13.18;;
77148;SDS011;66122;47.130;16.844;2023-01-24T13:46:56;31.77;;;12.97;;
77148;SDS011;66122;47.130;16.844;2023-01-24T14:07:17;30.00;;;11.75;;
77148;SDS011;66122;47.130;16.844;2023-01-24T14:27:51;26.90;;;11.63;;
77148;SDS011;66122;47.130;16.844;2023-01-24T14:38:15;29.97;;;13.00;;
77148;SDS011;66122;47.130;16.844;2023-01-24T14:48:23;28.65;;;12.55;;
77148;SDS011;66122;47.130;16.844;2023-01-24T14:58:27;33.27;;;14.37;;
77148;SDS011;66122;47.130;16.844;2023-01-24T15:08:32;38.20;;;14.80;;
77148;SDS011;66122;47.130;16.844;2023-01-24T15:19:24;25.55;;;12.18;;
77148;SDS011;66122;47.130;16.844;2023-01-24T15:39:43;25.80;;;11.23;;
77148;SDS011;66122;47.130;16.844;2023-01-24T15:49:56;27.50;;;11.93;;
77148;SDS011;66122;47.130;16.844;2023-01-24T16:00:03;27.13;;;12.13;;
77148;SDS011;66122;47.130;16.844;2023-01-24T16:10:24;33.67;;;13.90;;
77148;SDS011;66122;47.130;16.844;2023-01-24T16:20:27;25.63;;;11.07;;
77148;SDS011;66122;47.130;16.844;2023-01-24T16:30:30;28.35;;;11.68;;
77148;SDS011;66122;47.130;16.844;2023-01-24T16:40:32;26.13;;;11.93;;
77148;SDS011;66122;47.130;16.844;2023-01-24T16:50:37;22.97;;;10.47;;
77148;SDS011;66122;47.130;16.844;2023-01-24T17:00:41;25.17;;;10.77;;
77148;SDS011;66122;47.130;16.844;2023-01-24T17:10:44;27.93;;;12.10;;
77148;SDS011;66122;47.130;16.844;2023-01-24T17:20:48;28.50;;;12.03;;
77148;SDS011;66122;47.130;16.844;2023-01-24T17:30:50;31.70;;;11.70;;
77148;SDS011;66122;47.130;16.844;2023-01-24T17:40:53;22.40;;;10.60;;
77148;SDS011;66122;47.130;16.844;2023-01-24T17:50:55;26.47;;;10.97;;
77148;SDS011;66122;47.130;16.844;2023-01-24T18:00:59;26.70;;;10.07;;
77148;SDS011;66122;47.130;16.844;2023-01-24T18:11:08;27.75;;;12.52;;
77148;SDS011;66122;47.130;16.844;2023-01-24T18:21:14;30.60;;;11.50;;
77148;SDS011;66122;47.130;16.844;2023-01-24T18:31:19;27.77;;;9.83;;
77148;SDS011;66122;47.130;16.844;2023-01-24T18:41:22;28.70;;;11.30;;
77148;SDS011;66122;47.130;16.844;2023-01-24T18:51:25;30.00;;;10.60;;
77148;SDS011;66122;47.130;16.844;2023-01-24T19:01:28;32.03;;;13.67;;
77148;SDS011;66122;47.130;16.844;2023-01-24T19:11:32;26.88;;;12.07;;
77148;SDS011;66122;47.130;16.844;2023-01-24T19:21:37;26.38;;;11.75;;
77148;SDS011;66122;47.130;16.844;2023-01-24T19:31:40;23.33;;;10.37;;
77148;SDS011;66122;47.130;16.844;2023-01-24T19:41:44;24.60;;;10.53;;
77148;SDS011;66122;47.130;16.844;2023-01-24T19:51:48;25.48;;;9.15;;
77148;SDS011;66122;47.130;16.844;2023-01-24T20:01:51;27.13;;;9.27;;
77148;SDS011;66122;47.130;16.844;2023-01-24T20:11:56;21.77;;;9.07;;
77148;SDS011;66122;47.130;16.844;2023-01-24T20:21:59;23.02;;;10.27;;
77148;SDS011;66122;47.130;16.844;2023-01-24T20:32:02;24.10;;;10.23;;
77148;SDS011;66122;47.130;16.844;2023-01-24T20:42:13;21.90;;;8.77;;
77148;SDS011;66122;47.130;16.844;2023-01-24T20:52:16;22.05;;;9.25;;
77148;SDS011;66122;47.130;16.844;2023-01-24T21:02:19;17.58;;;7.75;;
77148;SDS011;66122;47.130;16.844;2023-01-24T21:12:21;19.83;;;8.13;;
77148;SDS011;66122;47.130;16.844;2023-01-24T21:22:24;18.07;;;7.67;;
77148;SDS011;66122;47.130;16.844;2023-01-24T21:32:27;21.02;;;8.82;;
77148;SDS011;66122;47.130;16.844;2023-01-24T21:42:30;23.33;;;9.07;;
77148;SDS011;66122;47.130;16.844;2023-01-24T21:52:32;20.37;;;8.23;;
77148;SDS011;66122;47.130;16.844;2023-01-24T22:02:35;24.10;;;9.02;;
77148;SDS011;66122;47.130;16.844;2023-01-24T22:12:42;21.20;;;9.00;;
77148;SDS011;66122;47.130;16.844;2023-01-24T22:32:56;23.95;;;9.20;;
77148;SDS011;66122;47.130;16.844;2023-01-24T22:42:58;19.65;;;8.45;;
77148;SDS011;66122;47.130;16.844;2023-01-24T22:53:01;23.23;;;8.57;;
77148;SDS011;66122;47.130;16.844;2023-01-24T23:03:03;19.70;;;8.63;;
77148;SDS011;66122;47.130;16.844;2023-01-24T23:13:07;21.30;;;9.05;;
77148;SDS011;66122;47.130;16.844;2023-01-24T23:23:28;22.17;;;8.07;;
77148;SDS011;66122;47.130;16.844;2023-01-24T23:33:34;19.07;;;7.87;;
77148;SDS011;66122;47.130;16.844;2023-01-24T23:43:42;23.83;;;9.00;;
77148;SDS011;66122;47.130;16.844;2023-01-24T23:53:44;15.37;;;6.90;;
